Time;durP1;ratioP1;P1;durP2;ratioP2;P2;SDS_P1;SDS_P2;PMS_P1;PMS_P2;Temp;Humidity;BMP_temperature;BMP_pressure;BME280_temperature;BME280_humidity;BME280_pressure;Samples;Min_cycle;Max_cycle;Signal;HPM_P1;HPM_P2
2023/06/24 00:01:26;;;;;;;;;;;16.40;99.90;;;;;;4979929;28;19926;-87
2023/06/24 00:03:53;;;;;;;;;;;16.40;99.90;;;;;;4991684;28;19926;-87
2023/06/24 00:06:19;;;;;;;;;;;16.40;99.90;;;;;;4994222;28;19930;-87
2023/06/24 00:08:48;;;;;;;;;;;16.40;99.90;;;;;;4996490;28;20454;-87
2023/06/24 00:11:14;;;;;;;;;;;16.40;99.90;;;;;;4980367;28;19934;-86
2023/06/24 00:13:40;;;;;;;;;;;16.40;99.90;;;;;;4980499;28;19932;-86
2023/06/24 00:16:09;;;;;;;;;;;16.30;99.90;;;;;;4997422;28;20785;-86
2023/06/24 00:18:35;;;;;;;;;;;16.30;99.90;;;;;;4995424;28;20532;-86
2023/06/24 00:21:04;;;;;;;;;;;16.30;99.90;;;;;;4993859;28;19930;-86
2023/06/24 00:23:34;;;;;;;;;;;16.30;99.90;;;;;;4992403;28;19933;-87
2023/06/24 00:26:00;;;;;;;;;;;16.30;99.90;;;;;;4992927;28;19930;-87
2023/06/24 00:28:26;;;;;;;;;;;16.30;99.90;;;;;;4997479;28;19926;-86
2023/06/24 00:30:52;;;;;;;;;;;16.30;99.90;;;;;;4979755;28;19930;-87
2023/06/24 00:33:19;;;;;;;;;;;16.20;99.90;;;;;;4998258;28;19953;-86
2023/06/24 00:35:45;;;;;;;;;;;16.20;99.90;;;;;;4979643;28;19941;-87
2023/06/24 00:38:10;;;;;;;;;;;16.10;99.90;;;;;;4995919;28;19984;-87
2023/06/24 00:40:36;;;;;;;;;;;16.10;99.90;;;;;;4982793;28;19937;-87
2023/06/24 00:43:03;;;;;;;;;;;16.10;99.90;;;;;;4996611;28;19949;-87
2023/06/24 00:45:30;;;;;;;;;;;16.10;99.90;;;;;;4981484;28;19934;-86
2023/06/24 00:47:55;;;;;;;;;;;16.00;99.90;;;;;;4995879;28;20702;-87
2023/06/24 00:50:21;;;;;;;;;;;15.90;99.90;;;;;;5000611;28;19925;-87
2023/06/24 00:52:48;;;;;;;;;;;15.90;99.90;;;;;;5003771;28;19976;-87
2023/06/24 00:55:14;;;;;;;;;;;15.90;99.90;;;;;;5002753;28;19932;-87
2023/06/24 00:57:41;;;;;;;;;;;15.80;99.90;;;;;;4983237;28;19961;-87
2023/06/24 01:00:13;;;;;;;;;;;15.70;99.90;;;;;;5001087;28;19926;-86
2023/06/24 01:02:42;;;;;;;;;;;15.70;99.90;;;;;;4977128;28;19956;-88
2023/06/24 01:05:08;;;;;;;;;;;15.60;99.90;;;;;;5000579;28;19981;-87
2023/06/24 01:07:35;;;;;;;;;;;15.70;99.90;;;;;;4979914;28;19936;-88
2023/06/24 01:10:01;;;;;;;;;;;15.60;99.90;;;;;;4995076;28;19957;-88
2023/06/24 01:12:27;;;;;;;;;;;15.60;99.90;;;;;;4993984;28;20022;-88
2023/06/24 01:14:53;;;;;;;;;;;15.50;99.90;;;;;;4990552;28;20009;-87
2023/06/24 01:17:30;;;;;;;;;;;15.50;99.90;;;;;;4992206;28;20032;-87
2023/06/24 01:19:59;;;;;;;;;;;15.50;99.90;;;;;;4981134;28;19952;-87
2023/06/24 01:22:46;;;;;;;;;;;15.40;99.90;;;;;;4992017;28;19936;-87
2023/06/24 01:25:12;;;;;;;;;;;15.40;99.90;;;;;;5007954;28;19937;-88
2023/06/24 01:27:56;;;;;;;;;;;15.40;99.90;;;;;;4992019;28;19930;-87
2023/06/24 01:30:27;;;;;;;;;;;15.40;99.90;;;;;;4989949;28;19926;-88
2023/06/24 01:32:56;;;;;;;;;;;15.40;99.90;;;;;;4995899;28;20469;-87
2023/06/24 01:35:25;;;;;;;;;;;15.40;99.90;;;;;;4975517;28;19926;-88
2023/06/24 01:37:52;;;;;;;;;;;15.40;99.90;;;;;;4991801;28;19944;-87
2023/06/24 01:40:40;;;;;;;;;;;15.30;99.90;;;;;;4993091;28;19957;-87
2023/06/24 01:43:08;;;;;;;;;;;15.30;99.90;;;;;;4996204;28;19940;-88
2023/06/24 01:45:38;;;;;;;;;;;15.20;99.90;;;;;;5003900;28;19926;-87
2023/06/24 01:48:08;;;;;;;;;;;15.20;99.90;;;;;;4992749;28;19934;-87
2023/06/24 01:50:35;;;;;;;;;;;15.20;99.90;;;;;;4994026;28;19933;-87
2023/06/24 01:53:02;;;;;;;;;;;15.20;99.90;;;;;;4994849;28;19925;-87
2023/06/24 01:55:28;;;;;;;;;;;15.20;99.90;;;;;;4976232;28;19976;-87
2023/06/24 01:57:55;;;;;;;;;;;15.20;99.90;;;;;;4995001;28;19929;-86
2023/06/24 02:00:21;;;;;;;;;;;15.20;99.90;;;;;;4993326;28;20377;-87
2023/06/24 02:02:47;;;;;;;;;;;15.20;99.90;;;;;;4979416;28;19932;-88
2023/06/24 02:05:14;;;;;;;;;;;15.10;99.90;;;;;;4992576;28;20012;-88
2023/06/24 02:07:40;;;;;;;;;;;15.00;99.90;;;;;;4992739;28;20008;-88
2023/06/24 02:10:06;;;;;;;;;;;15.00;99.90;;;;;;4994540;28;19930;-88
2023/06/24 02:12:32;;;;;;;;;;;15.00;99.90;;;;;;4994929;28;19933;-88
2023/06/24 02:14:59;;;;;;;;;;;14.90;99.90;;;;;;4994756;28;20006;-88
2023/06/24 02:17:25;;;;;;;;;;;14.80;99.90;;;;;;4993756;28;20660;-88
2023/06/24 02:19:51;;;;;;;;;;;14.80;99.90;;;;;;4994658;28;19929;-88
2023/06/24 02:22:18;;;;;;;;;;;14.80;99.90;;;;;;4992573;28;19933;-88
2023/06/24 02:24:44;;;;;;;;;;;14.80;99.90;;;;;;4993198;28;19925;-88
2023/06/24 02:27:11;;;;;;;;;;;14.80;99.90;;;;;;4993859;28;19933;-88
2023/06/24 02:29:38;;;;;;;;;;;14.80;99.90;;;;;;4979708;28;19929;-88
2023/06/24 02:32:03;;;;;;;;;;;14.80;99.90;;;;;;4977996;28;19965;-88
2023/06/24 02:34:29;;;;;;;;;;;14.70;99.90;;;;;;4975715;28;19930;-86
2023/06/24 02:36:54;;;;;;;;;;;14.70;99.90;;;;;;4989044;28;20446;-86
2023/06/24 02:39:20;;;;;;;;;;;14.70;99.90;;;;;;4989244;28;19959;-86
2023/06/24 02:41:47;;;;;;;;;;;14.70;99.90;;;;;;4972633;28;20298;-87
2023/06/24 02:44:13;;;;;;;;;;;14.70;99.90;;;;;;4990369;28;19926;-87
2023/06/24 02:46:39;;;;;;;;;;;14.70;99.90;;;;;;4989963;28;19948;-86
2023/06/24 02:49:05;;;;;;;;;;;14.60;99.90;;;;;;4991917;28;20419;-87
2023/06/24 02:51:31;;;;;;;;;;;14.60;99.90;;;;;;4977789;28;19930;-88
2023/06/24 02:53:58;;;;;;;;;;;14.60;99.90;;;;;;4991426;28;19925;-88
2023/06/24 02:56:24;;;;;;;;;;;14.60;99.90;;;;;;4977716;28;19926;-88
2023/06/24 02:58:52;;;;;;;;;;;14.60;99.90;;;;;;4996925;28;20400;-88
2023/06/24 03:01:18;;;;;;;;;;;14.60;99.90;;;;;;4990097;28;19933;-89
2023/06/24 03:03:49;;;;;;;;;;;14.60;99.90;;;;;;4987070;28;19938;-88
2023/06/24 03:06:17;;;;;;;;;;;14.60;99.90;;;;;;4970884;28;19934;-88
2023/06/24 03:08:43;;;;;;;;;;;14.50;99.90;;;;;;4989834;28;20296;-88
2023/06/24 03:11:12;;;;;;;;;;;14.50;99.90;;;;;;4973952;28;19977;-88
2023/06/24 03:13:37;;;;;;;;;;;14.50;99.90;;;;;;4989738;28;19926;-88
2023/06/24 03:16:03;;;;;;;;;;;14.50;99.90;;;;;;4991586;28;19926;-88
2023/06/24 03:18:28;;;;;;;;;;;14.50;99.90;;;;;;4975369;28;19941;-88
2023/06/24 03:20:54;;;;;;;;;;;14.40;99.90;;;;;;4957226;28;19940;-88
2023/06/24 03:23:19;;;;;;;;;;;14.50;99.90;;;;;;4988374;28;19929;-88
2023/06/24 03:25:45;;;;;;;;;;;14.50;99.90;;;;;;4974760;28;19969;-88
2023/06/24 03:28:11;;;;;;;;;;;14.50;99.90;;;;;;4958516;28;20267;-89
2023/06/24 03:30:36;;;;;;;;;;;14.50;99.90;;;;;;4988688;28;19937;-88
2023/06/24 03:33:02;;;;;;;;;;;14.50;99.90;;;;;;4988025;28;20013;-88
2023/06/24 03:35:27;;;;;;;;;;;14.50;99.90;;;;;;4987475;28;20519;-88
2023/06/24 03:37:53;;;;;;;;;;;14.60;99.90;;;;;;4974274;28;19926;-88
2023/06/24 03:40:19;;;;;;;;;;;14.60;99.90;;;;;;4974129;28;19940;-88
2023/06/24 03:42:44;;;;;;;;;;;14.70;99.90;;;;;;4988172;28;19952;-88
2023/06/24 03:45:10;;;;;;;;;;;14.70;99.90;;;;;;4991358;28;19930;-88
2023/06/24 03:47:35;;;;;;;;;;;14.80;99.90;;;;;;4995063;28;19925;-88
2023/06/24 03:50:01;;;;;;;;;;;14.80;99.90;;;;;;4988030;28;19930;-88
2023/06/24 03:52:27;;;;;;;;;;;14.80;99.90;;;;;;4991856;28;19933;-89
2023/06/24 03:54:53;;;;;;;;;;;14.80;99.90;;;;;;4983530;28;19980;-88
2023/06/24 03:57:18;;;;;;;;;;;14.90;99.90;;;;;;4998442;28;19937;-88
2023/06/24 03:59:44;;;;;;;;;;;14.90;99.90;;;;;;4998705;28;19929;-87
2023/06/24 04:02:10;;;;;;;;;;;15.00;99.90;;;;;;4997006;28;20431;-87
2023/06/24 04:04:35;;;;;;;;;;;15.00;99.90;;;;;;4989387;28;19926;-88
2023/06/24 04:07:01;;;;;;;;;;;15.10;99.90;;;;;;4979861;28;19925;-88
2023/06/24 04:09:26;;;;;;;;;;;15.20;99.90;;;;;;4974764;28;19986;-88
2023/06/24 04:11:52;;;;;;;;;;;15.20;99.90;;;;;;4992363;28;19949;-88
2023/06/24 04:14:18;;;;;;;;;;;15.30;99.90;;;;;;4977286;28;20004;-88
2023/06/24 04:16:43;;;;;;;;;;;15.30;99.90;;;;;;4993026;28;19976;-88
2023/06/24 04:19:09;;;;;;;;;;;15.40;99.90;;;;;;4993435;28;19936;-88
2023/06/24 04:21:34;;;;;;;;;;;15.50;99.90;;;;;;4992206;28;20268;-88
2023/06/24 04:24:00;;;;;;;;;;;15.60;99.90;;;;;;4990922;28;19964;-88
2023/06/24 04:26:25;;;;;;;;;;;15.70;99.90;;;;;;4992487;28;19993;-87
2023/06/24 04:28:51;;;;;;;;;;;15.80;99.90;;;;;;4997230;28;19937;-87
2023/06/24 04:31:16;;;;;;;;;;;15.90;99.90;;;;;;4988286;28;19926;-88
2023/06/24 04:33:42;;;;;;;;;;;16.00;99.90;;;;;;4993523;28;19925;-88
2023/06/24 04:36:08;;;;;;;;;;;16.10;99.90;;;;;;4991797;28;20271;-88
2023/06/24 04:38:33;;;;;;;;;;;16.10;99.90;;;;;;4995184;28;19926;-88
2023/06/24 04:40:59;;;;;;;;;;;16.20;99.90;;;;;;5000539;28;21484;-88
2023/06/24 04:43:25;;;;;;;;;;;16.30;99.90;;;;;;4977392;28;20389;-88
2023/06/24 04:45:51;;;;;;;;;;;16.30;99.90;;;;;;5001568;28;19937;-87
2023/06/24 04:48:16;;;;;;;;;;;16.40;99.90;;;;;;4981700;28;19926;-88
2023/06/24 04:50:42;;;;;;;;;;;16.50;99.90;;;;;;4996582;28;19930;-88
2023/06/24 04:53:07;;;;;;;;;;;16.60;99.90;;;;;;4996426;28;20016;-87
2023/06/24 04:55:33;;;;;;;;;;;16.70;99.90;;;;;;4998688;28;19937;-87
2023/06/24 04:57:59;;;;;;;;;;;16.80;99.90;;;;;;4984283;28;20013;-88
2023/06/24 05:00:24;;;;;;;;;;;16.90;99.90;;;;;;5015020;28;19934;-87
2023/06/24 05:02:50;;;;;;;;;;;17.00;99.90;;;;;;4984322;28;19926;-88
2023/06/24 05:05:15;;;;;;;;;;;17.20;99.90;;;;;;5001017;28;19929;-88
2023/06/24 05:07:41;;;;;;;;;;;17.40;99.90;;;;;;5000852;28;19930;-88
2023/06/24 05:10:07;;;;;;;;;;;17.60;99.90;;;;;;5000970;28;20404;-88
2023/06/24 05:12:32;;;;;;;;;;;17.80;99.90;;;;;;5001189;28;20000;-88
2023/06/24 05:14:58;;;;;;;;;;;18.10;99.90;;;;;;5001202;28;19926;-88
2023/06/24 05:17:23;;;;;;;;;;;18.60;99.90;;;;;;4981092;28;20036;-89
2023/06/24 05:19:49;;;;;;;;;;;19.10;99.90;;;;;;4982226;28;19925;-89
2023/06/24 05:22:15;;;;;;;;;;;19.60;99.90;;;;;;4993751;28;19998;-88
2023/06/24 05:24:41;;;;;;;;;;;20.00;99.90;;;;;;4995169;28;19930;-88
2023/06/24 05:27:06;;;;;;;;;;;20.30;99.90;;;;;;4994220;28;19929;-88
2023/06/24 05:29:32;;;;;;;;;;;20.60;99.90;;;;;;4998459;28;19933;-89
2023/06/24 05:31:58;;;;;;;;;;;20.80;99.90;;;;;;4995177;28;21554;-89
2023/06/24 05:34:24;;;;;;;;;;;21.20;99.90;;;;;;4979420;28;19934;-89
2023/06/24 05:36:49;;;;;;;;;;;21.50;99.90;;;;;;4979090;28;19953;-89
2023/06/24 05:39:15;;;;;;;;;;;21.80;99.90;;;;;;4993739;28;19969;-87
2023/06/24 05:41:41;;;;;;;;;;;22.10;99.90;;;;;;4998464;28;19988;-89
2023/06/24 05:44:07;;;;;;;;;;;22.40;99.90;;;;;;5001182;28;19936;-88
2023/06/24 05:46:33;;;;;;;;;;;22.80;99.90;;;;;;5004059;28;20399;-89
2023/06/24 05:48:58;;;;;;;;;;;23.10;99.90;;;;;;5006163;28;19965;-88
2023/06/24 05:51:24;;;;;;;;;;;23.20;99.90;;;;;;4984052;28;19930;-89
2023/06/24 05:53:50;;;;;;;;;;;23.60;99.90;;;;;;5000596;28;19949;-88
2023/06/24 05:56:15;;;;;;;;;;;23.90;99.90;;;;;;4996473;28;19926;-88
2023/06/24 05:58:41;;;;;;;;;;;24.20;99.90;;;;;;4993321;28;19926;-88
2023/06/24 06:01:10;;;;;;;;;;;24.30;99.90;;;;;;4998744;28;20337;-87
2023/06/24 06:03:35;;;;;;;;;;;24.60;99.90;;;;;;4997420;28;20003;-88
2023/06/24 06:06:01;;;;;;;;;;;24.80;99.90;;;;;;5001175;28;19925;-88
2023/06/24 06:08:26;;;;;;;;;;;25.00;99.90;;;;;;5000674;28;19929;-88
2023/06/24 06:10:52;;;;;;;;;;;25.20;99.90;;;;;;4999049;28;19930;-88
2023/06/24 06:13:17;;;;;;;;;;;25.40;99.90;;;;;;4979624;28;19993;-88
2023/06/24 06:15:43;;;;;;;;;;;25.60;99.90;;;;;;4977112;28;19926;-87
2023/06/24 06:18:09;;;;;;;;;;;25.80;99.90;;;;;;4993918;28;19948;-87
2023/06/24 06:20:34;;;;;;;;;;;25.90;99.90;;;;;;4993935;28;19929;-87
2023/06/24 06:23:00;;;;;;;;;;;26.10;99.90;;;;;;4978371;28;20045;-88
2023/06/24 06:25:25;;;;;;;;;;;26.30;99.90;;;;;;4979668;28;19938;-88
2023/06/24 06:27:51;;;;;;;;;;;26.40;99.90;;;;;;4979934;28;19930;-87
2023/06/24 06:30:17;;;;;;;;;;;26.60;99.90;;;;;;4994145;28;19925;-88
2023/06/24 06:32:43;;;;;;;;;;;26.80;99.90;;;;;;4972535;28;19926;-87
2023/06/24 06:35:08;;;;;;;;;;;26.90;99.90;;;;;;5015215;28;19929;-86
2023/06/24 06:37:34;;;;;;;;;;;27.00;99.90;;;;;;5017629;28;19925;-87
2023/06/24 06:39:59;;;;;;;;;;;27.20;99.90;;;;;;5013627;28;19941;-86
2023/06/24 06:42:25;;;;;;;;;;;27.40;99.90;;;;;;5016056;28;19929;-86
2023/06/24 06:44:50;;;;;;;;;;;27.50;99.90;;;;;;5017511;28;20331;-85
2023/06/24 06:47:16;;;;;;;;;;;27.60;99.60;;;;;;5016892;28;19925;-86
2023/06/24 06:49:41;;;;;;;;;;;27.80;99.60;;;;;;5016356;28;19932;-86
2023/06/24 06:52:07;;;;;;;;;;;28.00;97.10;;;;;;5000449;28;20390;-86
2023/06/24 06:54:33;;;;;;;;;;;28.10;96.70;;;;;;5018041;28;19934;-85
2023/06/24 06:57:02;;;;;;;;;;;28.20;97.10;;;;;;5014808;28;19932;-86
2023/06/24 06:59:27;;;;;;;;;;;28.40;99.10;;;;;;5017064;28;19925;-86
2023/06/24 07:01:53;;;;;;;;;;;28.50;94.80;;;;;;4997346;28;20054;-86
2023/06/24 07:04:19;;;;;;;;;;;28.70;94.50;;;;;;5010356;28;19925;-86
2023/06/24 07:06:44;;;;;;;;;;;28.80;94.20;;;;;;5013255;28;19933;-85
2023/06/24 07:09:10;;;;;;;;;;;29.00;92.40;;;;;;4997039;28;19983;-86
2023/06/24 07:11:36;;;;;;;;;;;29.20;92.10;;;;;;5013238;28;19944;-85
2023/06/24 07:14:01;;;;;;;;;;;29.30;95.70;;;;;;5016492;28;19933;-85
2023/06/24 07:16:27;;;;;;;;;;;29.40;94.70;;;;;;5017816;28;19935;-85
2023/06/24 07:18:52;;;;;;;;;;;29.50;93.40;;;;;;5000889;28;19961;-85
2023/06/24 07:21:18;;;;;;;;;;;29.70;88.40;;;;;;4991924;28;20000;-84
2023/06/24 07:23:44;;;;;;;;;;;29.90;90.40;;;;;;4998976;28;19929;-85
2023/06/24 07:26:09;;;;;;;;;;;30.10;88.90;;;;;;5015435;28;20396;-86
2023/06/24 07:28:35;;;;;;;;;;;30.30;92.40;;;;;;5001571;28;19925;-85
2023/06/24 07:31:01;;;;;;;;;;;30.40;90.80;;;;;;5014048;28;19933;-85
2023/06/24 07:33:26;;;;;;;;;;;30.40;85.10;;;;;;4995925;28;19929;-85
2023/06/24 07:35:52;;;;;;;;;;;30.30;89.20;;;;;;4999823;28;20012;-84
2023/06/24 07:38:18;;;;;;;;;;;30.20;78.90;;;;;;5018843;28;19936;-85
2023/06/24 07:40:43;;;;;;;;;;;30.00;84.40;;;;;;4995035;28;20351;-84
2023/06/24 07:43:09;;;;;;;;;;;29.80;88.60;;;;;;5003105;28;21514;-84
2023/06/24 07:45:34;;;;;;;;;;;29.90;85.40;;;;;;5006323;28;19929;-84
2023/06/24 07:48:00;;;;;;;;;;;30.00;82.60;;;;;;5021159;28;19925;-85
2023/06/24 07:50:25;;;;;;;;;;;29.90;80.40;;;;;;5015896;28;19936;-85
2023/06/24 07:52:51;;;;;;;;;;;30.00;83.80;;;;;;4991665;28;20719;-85
2023/06/24 07:55:16;;;;;;;;;;;30.10;87.60;;;;;;5009197;28;19972;-84
2023/06/24 07:57:46;;;;;;;;;;;30.30;86.30;;;;;;5008524;28;19932;-84
2023/06/24 08:00:12;;;;;;;;;;;30.30;81.40;;;;;;4975530;28;19964;-85
2023/06/24 08:02:37;;;;;;;;;;;30.30;85.20;;;;;;5005038;28;19979;-85
2023/06/24 08:05:03;;;;;;;;;;;30.00;86.30;;;;;;5006219;28;21301;-84
2023/06/24 08:07:29;;;;;;;;;;;29.70;87.80;;;;;;5013698;28;19971;-84
2023/06/24 08:09:54;;;;;;;;;;;29.40;88.00;;;;;;4999737;28;19940;-84
2023/06/24 08:12:20;;;;;;;;;;;29.20;88.40;;;;;;5017804;28;19925;-85
2023/06/24 08:14:45;;;;;;;;;;;29.10;83.80;;;;;;5010749;28;19929;-85
2023/06/24 08:17:11;;;;;;;;;;;29.20;85.90;;;;;;5004250;28;19961;-84
2023/06/24 08:19:36;;;;;;;;;;;29.40;82.60;;;;;;5021881;28;19978;-84
2023/06/24 08:22:02;;;;;;;;;;;29.50;84.00;;;;;;5016510;28;19933;-84
2023/06/24 08:24:28;;;;;;;;;;;29.60;88.50;;;;;;5002865;28;19975;-83
2023/06/24 08:26:53;;;;;;;;;;;29.70;88.20;;;;;;5017977;28;20028;-85
2023/06/24 08:29:19;;;;;;;;;;;29.80;84.00;;;;;;5017597;28;19931;-84
2023/06/24 08:31:44;;;;;;;;;;;29.80;76.80;;;;;;5020277;28;20002;-85
2023/06/24 08:34:10;;;;;;;;;;;29.90;80.90;;;;;;5016993;28;20019;-84
2023/06/24 08:36:37;;;;;;;;;;;29.90;77.30;;;;;;5034538;28;19933;-84
2023/06/24 08:39:02;;;;;;;;;;;30.00;79.60;;;;;;5003317;28;19929;-85
2023/06/24 08:41:28;;;;;;;;;;;30.00;79.20;;;;;;5007374;28;20392;-85
2023/06/24 08:43:54;;;;;;;;;;;30.10;78.10;;;;;;5004797;28;19929;-84
2023/06/24 08:46:20;;;;;;;;;;;30.00;77.30;;;;;;4998678;28;19982;-84
2023/06/24 08:48:47;;;;;;;;;;;30.00;80.50;;;;;;4992850;28;19929;-84
2023/06/24 08:51:14;;;;;;;;;;;29.90;71.70;;;;;;5004862;28;19968;-84
2023/06/24 08:53:42;;;;;;;;;;;29.90;73.00;;;;;;5019388;28;19932;-84
2023/06/24 08:56:08;;;;;;;;;;;29.70;70.00;;;;;;4993886;28;19933;-85
2023/06/24 08:58:33;;;;;;;;;;;29.70;75.30;;;;;;5014887;28;19932;-84
2023/06/24 09:00:59;;;;;;;;;;;29.70;75.30;;;;;;5012467;28;19925;-85
2023/06/24 09:03:25;;;;;;;;;;;29.70;75.10;;;;;;5013504;28;21054;-84
2023/06/24 09:05:51;;;;;;;;;;;29.70;72.20;;;;;;5013690;28;19929;-85
2023/06/24 09:08:18;;;;;;;;;;;29.80;74.40;;;;;;5010527;28;19933;-85
2023/06/24 09:10:43;;;;;;;;;;;29.90;67.60;;;;;;5011540;28;20132;-85
2023/06/24 09:13:09;;;;;;;;;;;29.90;69.50;;;;;;5012767;28;20167;-85
2023/06/24 09:15:35;;;;;;;;;;;30.00;69.80;;;;;;5013623;28;19929;-85
2023/06/24 09:18:01;;;;;;;;;;;30.00;68.80;;;;;;4994696;28;19925;-84
2023/06/24 09:20:27;;;;;;;;;;;30.10;74.00;;;;;;5012566;28;19952;-85
2023/06/24 09:23:00;;;;;;;;;;;30.20;66.90;;;;;;5005668;28;19929;-83
2023/06/24 09:25:25;;;;;;;;;;;30.30;61.20;;;;;;5028298;28;19940;-85
2023/06/24 09:27:52;;;;;;;;;;;30.20;66.20;;;;;;5008812;28;19933;-84
2023/06/24 09:30:21;;;;;;;;;;;30.30;69.70;;;;;;4995297;28;19926;-85
2023/06/24 09:32:47;;;;;;;;;;;30.50;70.90;;;;;;5007579;28;19929;-85
2023/06/24 09:35:13;;;;;;;;;;;30.50;71.00;;;;;;5008463;28;20028;-85
2023/06/24 09:37:39;;;;;;;;;;;30.50;66.00;;;;;;5007545;28;19967;-85
2023/06/24 09:40:06;;;;;;;;;;;30.50;65.90;;;;;;5008014;28;19930;-84
2023/06/24 09:42:31;;;;;;;;;;;30.70;68.10;;;;;;5005962;28;19932;-84
2023/06/24 09:44:57;;;;;;;;;;;30.80;61.90;;;;;;5008794;28;19953;-85
2023/06/24 09:47:27;;;;;;;;;;;30.80;63.90;;;;;;4993300;28;19930;-85
2023/06/24 09:49:53;;;;;;;;;;;30.90;65.00;;;;;;4991373;28;19949;-85
2023/06/24 09:52:20;;;;;;;;;;;30.90;62.30;;;;;;5009661;28;19929;-85
2023/06/24 09:54:46;;;;;;;;;;;30.90;62.10;;;;;;5015109;28;19933;-84
2023/06/24 09:57:13;;;;;;;;;;;30.90;62.60;;;;;;5000724;28;19926;-84
2023/06/24 09:59:39;;;;;;;;;;;30.90;66.00;;;;;;5010249;28;19964;-84
2023/06/24 10:02:09;;;;;;;;;;;30.90;66.40;;;;;;5009201;28;20282;-84
2023/06/24 10:04:35;;;;;;;;;;;31.00;60.70;;;;;;5006873;28;19934;-84
2023/06/24 10:07:02;;;;;;;;;;;31.10;65.20;;;;;;5005395;28;19932;-85
2023/06/24 10:09:27;;;;;;;;;;;31.20;59.80;;;;;;5010590;28;19996;-84
2023/06/24 10:11:53;;;;;;;;;;;31.20;65.50;;;;;;5011852;28;19925;-84
2023/06/24 10:14:19;;;;;;;;;;;31.30;66.00;;;;;;5021685;28;19931;-84
2023/06/24 10:16:44;;;;;;;;;;;31.30;62.20;;;;;;4999785;28;20460;-84
2023/06/24 10:19:10;;;;;;;;;;;31.40;64.70;;;;;;5016527;28;20032;-84
2023/06/24 10:21:56;;;;;;;;;;;31.60;61.80;;;;;;4999877;28;19929;-86
2023/06/24 10:24:28;;;;;;;;;;;31.70;62.60;;;;;;5017292;28;19959;-83
2023/06/24 10:26:54;;;;;;;;;;;31.60;61.00;;;;;;5017729;28;19926;-83
2023/06/24 10:29:30;;;;;;;;;;;31.40;60.80;;;;;;5021658;28;19936;-82
2023/06/24 10:31:56;;;;;;;;;;;31.50;61.90;;;;;;5021765;28;20008;-81
2023/06/24 10:34:34;;;;;;;;;;;31.50;64.00;;;;;;5016112;28;19925;-82
2023/06/24 10:37:01;;;;;;;;;;;31.50;59.80;;;;;;5021740;28;20149;-83
2023/06/24 10:39:39;;;;;;;;;;;31.60;62.00;;;;;;5021789;28;20349;-82
2023/06/24 10:42:24;;;;;;;;;;;31.60;63.40;;;;;;5021677;28;19936;-83
2023/06/24 10:44:50;;;;;;;;;;;31.70;60.00;;;;;;5033172;28;19936;-83
2023/06/24 10:47:16;;;;;;;;;;;31.60;58.90;;;;;;5001394;28;20008;-84
2023/06/24 10:49:42;;;;;;;;;;;31.70;61.10;;;;;;5018945;28;19932;-86
2023/06/24 10:52:08;;;;;;;;;;;31.90;63.80;;;;;;5014583;28;19925;-86
2023/06/24 10:54:35;;;;;;;;;;;32.00;62.30;;;;;;5014900;28;19925;-86
2023/06/24 10:57:00;;;;;;;;;;;32.00;60.60;;;;;;5021026;28;19924;-85
2023/06/24 10:59:26;;;;;;;;;;;32.00;60.60;;;;;;5024177;28;19925;-84
2023/06/24 11:01:54;;;;;;;;;;;32.00;59.20;;;;;;5018948;28;19995;-85
2023/06/24 11:04:20;;;;;;;;;;;32.10;61.20;;;;;;5002297;28;20412;-85
2023/06/24 11:07:01;;;;;;;;;;;32.00;57.70;;;;;;5016230;28;19980;-85
2023/06/24 11:09:27;;;;;;;;;;;32.00;60.10;;;;;;5012972;28;20509;-85
2023/06/24 11:11:53;;;;;;;;;;;31.90;60.90;;;;;;5014619;28;19953;-83
2023/06/24 11:14:22;;;;;;;;;;;31.80;59.20;;;;;;5000693;28;19932;-85
2023/06/24 11:16:47;;;;;;;;;;;31.80;61.10;;;;;;5021709;28;19925;-84
2023/06/24 11:19:13;;;;;;;;;;;31.80;58.10;;;;;;5017625;28;19976;-83
2023/06/24 11:21:38;;;;;;;;;;;31.60;59.40;;;;;;5014513;28;19932;-83
2023/06/24 11:24:05;;;;;;;;;;;31.20;60.20;;;;;;5019481;28;19933;-82
2023/06/24 11:26:30;;;;;;;;;;;30.70;59.60;;;;;;5017818;28;19972;-84
2023/06/24 11:28:56;;;;;;;;;;;30.40;60.10;;;;;;4999766;28;19936;-82
2023/06/24 11:31:28;;;;;;;;;;;30.20;61.90;;;;;;5021461;28;19933;-82
2023/06/24 11:33:53;;;;;;;;;;;30.30;61.80;;;;;;5005115;28;19925;-84
2023/06/24 11:36:19;;;;;;;;;;;30.60;62.20;;;;;;5021816;28;19925;-83
2023/06/24 11:38:45;;;;;;;;;;;30.90;61.50;;;;;;5016265;28;19933;-83
2023/06/24 11:41:11;;;;;;;;;;;31.00;59.00;;;;;;5019178;28;19925;-83
2023/06/24 11:43:37;;;;;;;;;;;30.90;58.70;;;;;;5035778;28;19925;-83
2023/06/24 11:46:02;;;;;;;;;;;30.70;58.70;;;;;;5003903;28;19933;-83
2023/06/24 11:48:28;;;;;;;;;;;30.10;58.10;;;;;;5021302;28;20015;-83
2023/06/24 11:50:56;;;;;;;;;;;29.90;60.70;;;;;;4984781;28;20299;-84
2023/06/24 11:53:40;;;;;;;;;;;29.70;59.90;;;;;;5015583;28;19975;-83
2023/06/24 11:56:05;;;;;;;;;;;29.70;60.80;;;;;;5021054;28;20277;-84
2023/06/24 11:58:34;;;;;;;;;;;30.00;62.00;;;;;;5019376;28;19933;-85
2023/06/24 12:00:59;;;;;;;;;;;30.20;59.90;;;;;;5000296;28;19980;-82
2023/06/24 12:03:27;;;;;;;;;;;30.20;61.00;;;;;;5020814;28;19945;-82
2023/06/24 12:05:53;;;;;;;;;;;30.10;61.50;;;;;;5021857;28;19929;-83
2023/06/24 12:08:18;;;;;;;;;;;30.10;62.50;;;;;;5005783;28;19979;-82
2023/06/24 12:10:44;;;;;;;;;;;30.10;63.50;;;;;;5002513;28;20377;-82
2023/06/24 12:13:10;;;;;;;;;;;30.10;63.10;;;;;;5012928;28;19925;-83
2023/06/24 12:15:35;;;;;;;;;;;30.10;58.90;;;;;;5022493;28;19933;-83
2023/06/24 12:18:05;;;;;;;;;;;30.10;60.00;;;;;;5005194;28;20005;-82
2023/06/24 12:20:32;;;;;;;;;;;30.10;61.80;;;;;;5039766;28;20260;-82
2023/06/24 12:22:57;;;;;;;;;;;30.20;61.50;;;;;;5020372;28;19931;-83
2023/06/24 12:25:23;;;;;;;;;;;30.30;60.60;;;;;;5020529;28;19964;-85
2023/06/24 12:27:49;;;;;;;;;;;30.20;58.00;;;;;;5039694;28;19956;-83
2023/06/24 12:30:16;;;;;;;;;;;30.00;59.00;;;;;;5021859;28;19936;-82
2023/06/24 12:32:42;;;;;;;;;;;29.80;60.00;;;;;;5021908;28;19925;-82
2023/06/24 12:35:10;;;;;;;;;;;29.50;59.90;;;;;;5000830;28;19933;-82
2023/06/24 12:37:36;;;;;;;;;;;29.30;59.80;;;;;;5002849;28;19929;-83
2023/06/24 12:40:02;;;;;;;;;;;29.20;64.10;;;;;;5021429;28;19952;-83
2023/06/24 12:42:28;;;;;;;;;;;29.30;62.20;;;;;;5021958;28;19932;-83
2023/06/24 12:44:53;;;;;;;;;;;29.30;62.00;;;;;;5020155;28;19929;-83
2023/06/24 12:47:19;;;;;;;;;;;29.00;61.90;;;;;;5021382;28;19929;-83
2023/06/24 12:49:45;;;;;;;;;;;28.90;61.40;;;;;;5022035;28;19989;-82
2023/06/24 12:52:11;;;;;;;;;;;28.70;62.90;;;;;;5001270;28;19937;-83
2023/06/24 12:54:36;;;;;;;;;;;28.60;63.60;;;;;;4998758;28;20734;-84
2023/06/24 12:57:02;;;;;;;;;;;28.60;64.70;;;;;;5015797;28;19989;-84
2023/06/24 12:59:28;;;;;;;;;;;28.60;65.80;;;;;;5021396;28;19925;-84
2023/06/24 13:01:53;;;;;;;;;;;28.60;66.00;;;;;;5025591;28;19929;-83
2023/06/24 13:04:21;;;;;;;;;;;28.60;66.60;;;;;;4997106;28;20406;-83
2023/06/24 13:06:47;;;;;;;;;;;28.50;66.20;;;;;;5021815;28;19931;-82
2023/06/24 13:09:13;;;;;;;;;;;28.40;65.40;;;;;;5003102;28;20215;-85
2023/06/24 13:11:40;;;;;;;;;;;28.30;65.40;;;;;;5033810;28;20284;-84
2023/06/24 13:14:05;;;;;;;;;;;28.30;66.70;;;;;;5004166;28;19936;-83
2023/06/24 13:16:31;;;;;;;;;;;28.60;66.80;;;;;;4996990;28;19933;-82
2023/06/24 13:18:57;;;;;;;;;;;28.90;66.30;;;;;;5007968;28;19963;-81
2023/06/24 13:21:22;;;;;;;;;;;29.00;65.40;;;;;;4989173;28;19925;-82
2023/06/24 13:23:48;;;;;;;;;;;29.00;64.60;;;;;;4989814;28;19933;-82
2023/06/24 13:26:14;;;;;;;;;;;28.70;64.40;;;;;;5018064;28;20038;-83
2023/06/24 13:28:40;;;;;;;;;;;28.50;65.00;;;;;;5007340;28;19925;-82
2023/06/24 13:31:05;;;;;;;;;;;28.30;65.70;;;;;;5023650;28;19929;-83
2023/06/24 13:33:31;;;;;;;;;;;28.20;66.40;;;;;;5024635;28;19932;-83
2023/06/24 13:35:56;;;;;;;;;;;28.20;67.50;;;;;;5004453;28;19925;-82
2023/06/24 13:38:22;;;;;;;;;;;28.20;69.00;;;;;;4981142;28;19932;-83
2023/06/24 13:40:48;;;;;;;;;;;28.60;69.10;;;;;;4993984;28;19925;-82
2023/06/24 13:43:13;;;;;;;;;;;29.10;65.40;;;;;;5003803;28;20454;-83
2023/06/24 13:45:39;;;;;;;;;;;29.30;64.30;;;;;;5042697;28;20419;-82
2023/06/24 13:48:05;;;;;;;;;;;29.40;64.40;;;;;;5003740;28;19933;-83
2023/06/24 13:50:30;;;;;;;;;;;29.20;64.40;;;;;;5004795;28;19936;-84
2023/06/24 13:52:56;;;;;;;;;;;29.00;64.10;;;;;;5023330;28;20400;-82
2023/06/24 13:55:21;;;;;;;;;;;28.90;64.80;;;;;;5004664;28;19929;-82
2023/06/24 13:57:47;;;;;;;;;;;28.80;65.90;;;;;;5024171;28;19948;-83
2023/06/24 14:00:13;;;;;;;;;;;28.70;65.80;;;;;;5021903;28;19925;-82
2023/06/24 14:02:39;;;;;;;;;;;28.60;65.20;;;;;;5004948;28;19989;-83
2023/06/24 14:05:05;;;;;;;;;;;28.50;65.60;;;;;;5001248;28;19932;-84
2023/06/24 14:07:30;;;;;;;;;;;28.50;66.10;;;;;;5024077;28;20336;-82
2023/06/24 14:09:56;;;;;;;;;;;28.40;65.80;;;;;;5022326;28;19929;-83
2023/06/24 14:12:22;;;;;;;;;;;28.40;64.50;;;;;;5001170;28;19932;-83